createdAt,value
2024-02-21T00:04:34.751Z,100480.89
2024-02-21T00:10:32.984Z,100472.14
2024-02-21T00:16:36.901Z,100472.66
2024-02-21T00:22:31.033Z,100468.30
2024-02-21T00:27:45.156Z,100469.11
2024-02-21T00:33:29.002Z,100468.05
2024-02-21T00:39:12.807Z,100462.77
2024-02-21T00:45:04.228Z,100466.60
2024-02-21T00:50:28.566Z,100461.11
2024-02-21T00:56:32.813Z,100464.45
2024-02-21T01:01:59.179Z,100463.04
2024-02-21T01:07:52.929Z,100461.51
2024-02-21T01:13:46.830Z,100459.80
2024-02-21T01:19:49.775Z,100455.55
2024-02-21T01:25:52.716Z,100453.27
2024-02-21T01:31:57.066Z,100452.20
2024-02-21T01:37:51.439Z,100449.20
2024-02-21T01:43:41.492Z,100445.70
2024-02-21T01:49:45.147Z,100440.92
2024-02-21T01:55:45.443Z,100432.36
2024-02-21T02:01:40.309Z,100432.15
2024-02-21T02:07:26.843Z,100424.90
2024-02-21T02:13:30.776Z,100420.98
2024-02-21T02:19:33.345Z,100420.43
2024-02-21T02:25:37.186Z,100421.38
2024-02-21T02:31:40.766Z,100424.43
2024-02-21T02:37:27.308Z,100417.08
2024-02-21T02:43:11.076Z,100423.02
2024-02-21T02:49:12.812Z,100409.02
2024-02-21T02:55:16.596Z,100407.06
2024-02-21T03:01:12.584Z,100400.02
2024-02-21T03:07:06.828Z,100387.66
2024-02-21T03:13:10.609Z,100378.14
2024-02-21T03:19:14.400Z,100381.98
2024-02-21T03:25:19.107Z,100380.70
2024-02-21T03:31:22.216Z,100378.41
2024-02-21T03:37:26.281Z,100378.20
2024-02-21T03:43:29.936Z,100373.45
2024-02-21T03:49:33.747Z,100374.28
2024-02-21T03:55:38.943Z,100365.08
2024-02-21T04:01:42.681Z,100361.77
2024-02-21T04:07:22.500Z,100360.41
2024-02-21T04:13:26.245Z,100358.75
2024-02-21T04:19:30.077Z,100353.66
2024-02-21T04:25:33.991Z,100350.35
2024-02-21T04:31:37.833Z,100339.48
2024-02-21T04:37:41.621Z,100337.02
2024-02-21T04:43:45.398Z,100331.37
2024-02-21T04:49:48.906Z,100321.28
2024-02-21T04:55:46.133Z,100318.23
2024-02-21T05:01:49.900Z,100309.73
2024-02-21T05:07:53.804Z,100302.57
2024-02-21T05:13:57.578Z,100294.13
2024-02-21T05:20:02.049Z,100283.58
2024-02-21T05:26:06.248Z,100286.81
2024-02-21T05:32:10.463Z,100287.06
2024-02-21T05:38:14.199Z,100290.46
2024-02-21T05:44:17.934Z,100288.13
2024-02-21T05:50:15.129Z,100283.94
2024-02-21T05:56:18.898Z,100277.83
2024-02-21T06:02:22.647Z,100275.20
2024-02-21T06:08:26.410Z,100279.36
2024-02-21T06:14:30.065Z,100275.19
2024-02-21T06:20:33.858Z,100277.55
2024-02-21T06:26:37.731Z,100272.87
2024-02-21T06:32:41.594Z,100272.30
2024-02-21T06:38:45.362Z,100268.64
2024-02-21T06:44:49.233Z,100264.42
2024-02-21T06:50:52.972Z,100263.57
2024-02-21T06:56:56.507Z,100266.31
2024-02-21T07:03:00.233Z,100267.92
2024-02-21T07:09:04.381Z,100262.14
2024-02-21T07:15:07.985Z,100256.88
2024-02-21T07:21:11.929Z,100254.67
2024-02-21T07:27:15.517Z,100249.42
2024-02-21T07:33:19.261Z,100247.42
2024-02-21T07:39:22.984Z,100243.11
2024-02-21T07:45:20.282Z,100232.43
2024-02-21T07:51:24.084Z,100230.00
2024-02-21T07:57:27.849Z,100227.94
2024-02-21T08:02:52.043Z,100226.20
2024-02-21T08:08:55.999Z,100216.48
2024-02-21T08:14:59.703Z,100208.88
2024-02-21T08:20:24.073Z,100203.98
2024-02-21T08:26:28.067Z,100189.79
2024-02-21T08:32:34.585Z,100182.53
2024-02-21T08:38:38.543Z,100184.58
2024-02-21T08:44:42.247Z,100169.36
2024-02-21T08:50:46.098Z,100162.59
2024-02-21T08:56:39.846Z,100158.33
2024-02-21T09:02:33.533Z,100150.33
2024-02-21T09:08:37.324Z,100148.27
2024-02-21T09:14:00.936Z,100141.45
2024-02-21T09:20:05.049Z,100140.95
2024-02-21T09:26:09.084Z,100137.29
2024-02-21T09:32:12.880Z,100133.16
2024-02-21T09:38:10.042Z,100125.09
2024-02-21T09:43:46.355Z,100127.36
2024-02-21T09:49:41.039Z,100130.11
2024-02-21T09:55:25.235Z,100130.84
2024-02-21T10:00:29.158Z,100124.25
2024-02-21T10:06:21.774Z,100117.59
2024-02-21T10:12:09.155Z,100116.71
2024-02-21T10:18:12.968Z,100109.38
2024-02-21T10:24:25.634Z,100107.89
2024-02-21T10:30:29.140Z,100099.65
2024-02-21T10:36:25.691Z,100093.33
2024-02-21T10:42:29.787Z,100100.29
2024-02-21T10:48:23.356Z,100088.30
2024-02-21T10:54:22.203Z,100080.98
2024-02-21T11:00:25.756Z,100072.89
2024-02-21T11:06:13.442Z,100062.88
2024-02-21T11:12:17.339Z,100054.60
2024-02-21T11:17:37.415Z,100040.74
2024-02-21T11:23:45.566Z,100026.89
2024-02-21T11:29:49.459Z,100016.63
2024-02-21T11:36:02.055Z,100007.50
2024-02-21T11:42:05.956Z,100000.95
2024-02-21T11:47:18.806Z,99988.98
2024-02-21T11:52:50.918Z,99970.84
2024-02-21T11:58:36.075Z,99961.38
2024-02-21T12:04:40.140Z,99957.02
2024-02-21T12:10:36.724Z,99952.59
2024-02-21T12:16:40.548Z,99940.77
2024-02-21T12:23:04.907Z,99930.45
2024-02-21T12:29:09.336Z,99926.03
2024-02-21T12:35:13.173Z,99922.27
2024-02-21T12:41:17.404Z,99917.54
2024-02-21T12:47:12.372Z,99912.20
2024-02-21T12:53:22.789Z,99906.85
2024-02-21T12:59:12.718Z,99904.98
2024-02-21T13:05:16.655Z,99905.26
2024-02-21T13:10:46.616Z,99892.11
2024-02-21T13:16:40.474Z,99887.77
2024-02-21T13:22:28.532Z,99883.09
2024-02-21T13:27:52.444Z,99876.45
2024-02-21T13:33:39.714Z,99866.73
2024-02-21T13:39:39.012Z,99855.46
2024-02-21T13:45:43.055Z,99853.13
2024-02-21T13:51:45.414Z,99844.48
2024-02-21T13:57:49.083Z,99830.57
2024-02-21T14:03:51.462Z,99822.62
2024-02-21T14:09:55.183Z,99813.77
2024-02-21T14:15:51.933Z,99804.66
2024-02-21T14:21:55.838Z,99801.91
2024-02-21T14:27:58.444Z,99802.30
2024-02-21T14:34:02.405Z,99798.42
2024-02-21T14:40:06.328Z,99786.96
2024-02-21T14:46:10.264Z,99785.02
2024-02-21T14:52:04.066Z,99785.56
2024-02-21T14:57:52.821Z,99786.52
2024-02-21T15:03:56.576Z,99786.15
2024-02-21T15:10:00.385Z,99786.10
2024-02-21T15:15:55.192Z,99778.08
2024-02-21T15:21:48.957Z,99779.33
2024-02-21T15:27:45.458Z,99778.13
2024-02-21T15:33:49.398Z,99774.50
2024-02-21T15:39:53.368Z,99771.49
2024-02-21T15:45:37.136Z,99764.02
2024-02-21T15:51:05.442Z,99757.09
2024-02-21T15:57:09.212Z,99754.27
2024-02-21T16:03:13.017Z,99750.25
2024-02-21T16:08:30.613Z,99749.73
2024-02-21T16:14:26.930Z,99744.50
2024-02-21T16:20:18.112Z,99738.04
2024-02-21T16:26:14.365Z,99736.72
2024-02-21T16:32:18.160Z,99723.71
2024-02-21T16:38:03.677Z,99733.76
2024-02-21T16:44:07.665Z,99749.74
2024-02-21T16:50:11.669Z,99744.42
2024-02-21T16:55:37.358Z,99740.36
2024-02-21T17:01:21.418Z,99730.57
2024-02-21T17:07:25.312Z,99732.52
2024-02-21T17:13:29.279Z,99716.90
2024-02-21T17:19:33.346Z,99715.20
2024-02-21T17:25:37.282Z,99718.63
2024-02-21T17:31:40.065Z,99725.43
2024-02-21T17:37:36.451Z,99713.27
2024-02-21T17:43:22.471Z,99700.23
2024-02-21T17:49:04.389Z,99696.92
2024-02-21T17:54:47.753Z,99695.33
2024-02-21T18:00:42.644Z,99696.98
2024-02-21T18:06:46.145Z,99693.55
2024-02-21T18:12:49.930Z,99690.33
2024-02-21T18:18:52.528Z,99687.39
2024-02-21T18:24:45.166Z,99689.45
2024-02-21T18:30:49.264Z,99680.46
2024-02-21T18:36:51.923Z,99683.27
2024-02-21T18:42:55.788Z,99690.15
2024-02-21T18:48:32.081Z,99686.56
2024-02-21T18:54:07.129Z,99680.88
2024-02-21T18:59:50.775Z,99686.05
2024-02-21T19:04:57.360Z,99679.86
2024-02-21T19:10:32.012Z,99666.73
2024-02-21T19:16:11.375Z,99659.85
2024-02-21T19:21:20.367Z,99659.20
2024-02-21T19:27:11.422Z,99657.73
2024-02-21T19:33:14.433Z,99655.77
2024-02-21T19:39:10.423Z,99645.82
2024-02-21T19:45:14.321Z,99651.47
2024-02-21T19:50:23.437Z,99646.06
2024-02-21T19:56:20.980Z,99642.06
2024-02-21T20:02:24.679Z,99640.06
2024-02-21T20:08:01.123Z,99633.11
2024-02-21T20:13:27.264Z,99636.20
2024-02-21T20:19:20.879Z,99632.85
2024-02-21T20:25:24.632Z,99624.11
2024-02-21T20:31:21.477Z,99619.06
2024-02-21T20:37:18.709Z,99618.02
2024-02-21T20:43:22.680Z,99606.30
2024-02-21T20:49:28.748Z,99602.60
2024-02-21T20:55:28.159Z,99601.35
2024-02-21T21:01:39.088Z,99602.05
2024-02-21T21:07:35.517Z,99602.45
2024-02-21T21:13:26.757Z,99596.96
2024-02-21T21:19:33.380Z,99589.47
2024-02-21T21:25:18.351Z,99585.75
2024-02-21T21:30:41.270Z,99581.27
2024-02-21T21:36:07.533Z,99577.95
2024-02-21T21:42:03.015Z,99573.49
2024-02-21T21:47:49.537Z,99573.70
2024-02-21T21:53:36.063Z,99569.40
2024-02-21T21:59:30.824Z,99563.90
2024-02-21T22:05:34.578Z,99557.95
2024-02-21T22:11:09.694Z,99546.15
2024-02-21T22:17:14.845Z,99544.17
2024-02-21T22:23:13.373Z,99547.94
2024-02-21T22:29:17.130Z,99549.95
2024-02-21T22:35:02.469Z,99549.08
2024-02-21T22:41:06.547Z,99547.80
2024-02-21T22:47:10.263Z,99544.73
2024-02-21T22:52:56.886Z,99545.92
2024-02-21T22:58:00.372Z,99542.82
2024-02-21T23:03:04.268Z,99541.88
2024-02-21T23:09:03.728Z,99538.38
2024-02-21T23:15:07.372Z,99536.77
2024-02-21T23:21:03.892Z,99534.45
2024-02-21T23:26:35.354Z,99533.16
2024-02-21T23:32:42.541Z,99534.90
2024-02-21T23:38:35.248Z,99530.15
2024-02-21T23:44:36.472Z,99528.48
2024-02-21T23:50:40.342Z,99532.58
2024-02-21T23:56:44.020Z,99527.08
